Time;durP1;ratioP1;P1;durP2;ratioP2;P2;SDS_P1;SDS_P2;PMS_P1;PMS_P2;Temp;Humidity;BMP_temperature;BMP_pressure;BME280_temperature;BME280_humidity;BME280_pressure;Samples;Min_cycle;Max_cycle;Signal;HPM_P1;HPM_P2
2022/12/04 00:01:10;;;;;;;0.80;0.80;;;0.90;99.90;;;;;;4952912;28;20422;-80
2022/12/04 00:03:36;;;;;;;0.80;0.80;;;0.90;99.90;;;;;;4957374;28;20105;-80
2022/12/04 00:06:08;;;;;;;0.80;0.80;;;0.90;99.90;;;;;;4955075;28;20543;-80
2022/12/04 00:08:33;;;;;;;0.80;0.80;;;0.90;99.90;;;;;;4958844;28;20048;-79
2022/12/04 00:10:59;;;;;;;0.80;0.80;;;0.90;99.90;;;;;;4947229;28;20451;-80
2022/12/04 00:13:26;;;;;;;0.82;0.82;;;0.90;99.90;;;;;;4954259;28;20185;-79
2022/12/04 00:15:52;;;;;;;0.80;0.80;;;0.90;99.90;;;;;;4956430;28;20543;-80
2022/12/04 00:18:18;;;;;;;0.80;0.80;;;0.90;99.90;;;;;;4944990;28;20844;-80
2022/12/04 00:20:44;;;;;;;0.80;0.80;;;0.90;99.90;;;;;;4953103;28;20161;-80
2022/12/04 00:23:09;;;;;;;0.80;0.80;;;0.80;99.90;;;;;;4955685;28;20066;-80
2022/12/04 00:25:35;;;;;;;0.80;0.80;;;0.90;99.90;;;;;;4951570;28;20575;-79
2022/12/04 00:28:01;;;;;;;0.80;0.80;;;0.80;99.90;;;;;;4952959;28;20076;-80
2022/12/04 00:30:27;;;;;;;0.80;0.80;;;0.90;99.90;;;;;;4958724;28;20051;-79
2022/12/04 00:32:52;;;;;;;0.80;0.80;;;0.90;99.90;;;;;;4959531;28;20420;-80
2022/12/04 00:35:18;;;;;;;0.80;0.80;;;0.90;99.90;;;;;;4936870;28;20082;-79
2022/12/04 00:37:44;;;;;;;0.80;0.80;;;0.80;99.90;;;;;;4948459;28;20087;-80
2022/12/04 00:40:11;;;;;;;0.90;0.90;;;0.90;99.90;;;;;;4954790;28;20052;-80
2022/12/04 00:42:36;;;;;;;0.80;0.80;;;0.90;99.90;;;;;;4952349;28;20044;-80
2022/12/04 00:45:03;;;;;;;0.80;0.80;;;0.90;99.90;;;;;;4954832;28;20083;-79
2022/12/04 00:47:29;;;;;;;0.80;0.80;;;0.90;99.90;;;;;;4952644;28;20978;-80
2022/12/04 00:49:54;;;;;;;0.80;0.80;;;0.90;99.90;;;;;;4949774;28;20047;-80
2022/12/04 00:52:21;;;;;;;0.80;0.80;;;0.90;99.90;;;;;;4946456;28;20060;-80
2022/12/04 00:54:46;;;;;;;0.80;0.80;;;0.90;99.90;;;;;;4951187;28;21474;-80
2022/12/04 00:57:12;;;;;;;0.80;0.80;;;0.90;99.90;;;;;;4953671;28;20056;-80
2022/12/04 00:59:38;;;;;;;0.80;0.80;;;0.90;99.90;;;;;;4944400;28;20097;-80
2022/12/04 01:02:04;;;;;;;0.80;0.80;;;0.90;99.90;;;;;;4951493;28;20051;-80
2022/12/04 01:04:30;;;;;;;0.90;0.90;;;0.90;99.90;;;;;;4959485;28;20052;-80
2022/12/04 01:06:55;;;;;;;0.80;0.80;;;0.90;99.90;;;;;;4952714;28;20051;-80
2022/12/04 01:09:21;;;;;;;0.80;0.80;;;0.90;99.90;;;;;;4950878;28;20542;-80
2022/12/04 01:11:54;;;;;;;0.80;0.80;;;0.90;99.90;;;;;;4973779;28;20054;-80
2022/12/04 01:14:20;;;;;;;0.80;0.80;;;0.90;99.90;;;;;;4969761;28;20167;-80
2022/12/04 01:16:46;;;;;;;0.80;0.80;;;0.90;99.90;;;;;;4960895;28;20237;-79
2022/12/04 01:19:11;;;;;;;0.80;0.80;;;0.80;99.90;;;;;;4958136;28;20052;-80
2022/12/04 01:21:38;;;;;;;0.80;0.80;;;0.90;99.90;;;;;;4976563;28;20833;-79
2022/12/04 01:24:04;;;;;;;0.70;0.70;;;0.90;99.90;;;;;;4962929;28;20825;-80
2022/12/04 01:26:30;;;;;;;0.80;0.80;;;0.90;99.90;;;;;;4958335;28;20055;-80
2022/12/04 01:28:56;;;;;;;0.80;0.80;;;0.90;99.90;;;;;;4962196;28;20053;-79
2022/12/04 01:31:23;;;;;;;0.82;0.82;;;0.90;99.90;;;;;;4962470;28;20102;-80
2022/12/04 01:33:49;;;;;;;0.80;0.80;;;0.80;99.90;;;;;;4968337;28;20471;-80
2022/12/04 01:36:21;;;;;;;0.80;0.80;;;0.90;99.90;;;;;;4966584;28;20057;-80
2022/12/04 01:38:47;;;;;;;0.80;0.80;;;0.90;99.90;;;;;;4970816;28;20097;-80
2022/12/04 01:41:16;;;;;;;0.80;0.80;;;0.80;99.90;;;;;;4968504;28;20041;-79
2022/12/04 01:43:42;;;;;;;0.80;0.80;;;0.80;99.90;;;;;;4967175;28;20903;-79
2022/12/04 01:46:09;;;;;;;0.80;0.80;;;0.80;99.90;;;;;;4969401;28;20453;-80
2022/12/04 01:48:49;;;;;;;0.82;0.82;;;0.80;99.90;;;;;;4967465;28;20087;-80
2022/12/04 01:51:17;;;;;;;0.90;0.90;;;0.80;99.90;;;;;;4948874;28;20048;-80
2022/12/04 01:53:50;;;;;;;0.85;0.85;;;0.80;99.90;;;;;;4947490;28;20059;-79
2022/12/04 01:56:19;;;;;;;0.80;0.80;;;0.80;99.90;;;;;;4958071;28;20057;-80
2022/12/04 01:58:50;;;;;;;0.85;0.85;;;0.80;99.90;;;;;;4951707;28;20527;-80
2022/12/04 02:01:15;;;;;;;0.80;0.80;;;0.80;99.90;;;;;;4956273;28;20040;-80
2022/12/04 02:03:41;;;;;;;0.90;0.90;;;0.80;99.90;;;;;;4937007;28;20048;-81
2022/12/04 02:06:07;;;;;;;0.80;0.80;;;0.80;99.90;;;;;;4936395;28;20729;-80
2022/12/04 02:08:34;;;;;;;0.82;0.82;;;0.90;99.90;;;;;;4934876;28;20059;-81
2022/12/04 02:11:15;;;;;;;0.80;0.80;;;0.80;99.90;;;;;;4975622;28;20120;-80
2022/12/04 02:13:54;;;;;;;0.80;0.80;;;0.80;99.90;;;;;;4952534;28;20051;-80
2022/12/04 02:16:35;;;;;;;0.80;0.80;;;0.90;99.90;;;;;;4974028;28;20147;-80
2022/12/04 02:19:09;;;;;;;0.80;0.80;;;0.90;99.90;;;;;;4978080;28;20078;-80
2022/12/04 02:21:37;;;;;;;1.25;1.23;;;0.80;99.90;;;;;;4972701;28;20052;-80
2022/12/04 02:24:34;;;;;;;0.90;0.90;;;0.90;99.90;;;;;;4949830;28;20789;-79
2022/12/04 02:27:07;;;;;;;0.80;0.80;;;0.90;99.90;;;;;;4943885;28;20449;-80
2022/12/04 02:29:36;;;;;;;0.80;0.80;;;0.90;99.90;;;;;;4969671;28;20048;-80
2022/12/04 02:32:20;;;;;;;0.80;0.80;;;0.90;99.90;;;;;;4970869;28;20139;-80
2022/12/04 02:35:00;;;;;;;0.80;0.80;;;0.80;99.90;;;;;;4957652;28;20087;-80
2022/12/04 02:37:31;;;;;;;0.80;0.80;;;0.90;99.90;;;;;;4955764;28;20056;-79
2022/12/04 02:40:09;;;;;;;0.80;0.80;;;0.90;99.90;;;;;;4954874;28;20460;-80
2022/12/04 02:43:02;;;;;;;0.80;0.80;;;0.90;99.90;;;;;;4955227;28;20093;-80
2022/12/04 02:45:39;;;;;;;0.70;0.70;;;0.90;99.90;;;;;;4974579;28;20048;-80
2022/12/04 02:48:06;;;;;;;0.80;0.80;;;0.90;99.90;;;;;;4951729;28;20052;-80
2022/12/04 02:50:36;;;;;;;0.80;0.80;;;0.90;99.90;;;;;;4976354;28;20048;-81
2022/12/04 02:53:11;;;;;;;0.80;0.80;;;0.90;99.90;;;;;;4974701;28;20440;-80
2022/12/04 02:56:05;;;;;;;0.80;0.80;;;0.90;99.90;;;;;;4973670;28;20106;-81
2022/12/04 02:58:36;;;;;;;0.80;0.80;;;0.90;99.90;;;;;;4947245;28;20121;-80
2022/12/04 03:01:33;;;;;;;0.80;0.80;;;0.80;99.90;;;;;;4980163;28;20436;-80
2022/12/04 03:04:08;;;;;;;0.90;0.90;;;0.90;99.90;;;;;;4971262;28;20044;-80
2022/12/04 03:06:39;;;;;;;0.80;0.80;;;0.80;99.90;;;;;;4958076;28;20562;-80
2022/12/04 03:09:31;;;;;;;0.80;0.80;;;1.00;99.90;;;;;;4966271;28;20514;-79
2022/12/04 03:12:05;;;;;;;0.80;0.80;;;0.90;99.90;;;;;;4974296;28;20060;-80
2022/12/04 03:14:55;;;;;;;0.90;0.90;;;0.90;99.90;;;;;;4974981;28;20587;-80
2022/12/04 03:17:28;;;;;;;0.80;0.80;;;0.90;99.90;;;;;;4942486;28;20819;-80
2022/12/04 03:20:00;;;;;;;0.88;0.88;;;0.90;99.90;;;;;;4976482;28;20402;-80
2022/12/04 03:22:28;;;;;;;0.90;0.90;;;0.90;99.90;;;;;;4959696;28;20611;-80
2022/12/04 03:24:55;;;;;;;0.80;0.80;;;0.90;99.90;;;;;;4956876;28;20064;-80
2022/12/04 03:27:37;;;;;;;0.80;0.80;;;0.80;99.90;;;;;;4931196;28;20258;-80
2022/12/04 03:30:09;;;;;;;0.80;0.80;;;0.90;99.90;;;;;;4950202;28;20051;-78
2022/12/04 03:33:00;;;;;;;0.80;0.80;;;0.90;99.90;;;;;;4981338;28;20056;-80
2022/12/04 03:35:51;;;;;;;0.80;0.80;;;0.90;99.90;;;;;;4970194;28;20574;-80
2022/12/04 03:38:20;;;;;;;0.90;0.90;;;0.90;99.90;;;;;;4954001;28;20056;-80
2022/12/04 03:41:02;;;;;;;0.80;0.80;;;0.90;99.90;;;;;;4975229;28;20517;-80
2022/12/04 03:43:46;;;;;;;0.80;0.80;;;0.90;99.90;;;;;;4973039;28;20840;-80
2022/12/04 03:46:18;;;;;;;0.73;0.73;;;0.90;99.90;;;;;;4974586;28;20059;-80
2022/12/04 03:49:10;;;;;;;0.80;0.80;;;0.90;99.90;;;;;;4972377;28;20121;-80
2022/12/04 03:51:48;;;;;;;1.00;1.00;;;0.90;99.90;;;;;;4956497;28;20063;-80
2022/12/04 03:54:29;;;;;;;0.80;0.80;;;0.90;99.90;;;;;;4963709;28;20048;-80
2022/12/04 03:57:00;;;;;;;0.80;0.80;;;0.80;99.90;;;;;;4971079;28;20335;-80
2022/12/04 03:59:34;;;;;;;0.85;0.85;;;0.90;99.90;;;;;;4968276;28;20051;-79
2022/12/04 04:02:02;;;;;;;0.90;0.90;;;0.90;99.90;;;;;;4950793;28;20106;-80
2022/12/04 04:04:35;;;;;;;0.80;0.80;;;0.90;99.90;;;;;;4954822;28;20503;-80
2022/12/04 04:07:08;;;;;;;0.80;0.80;;;0.90;99.90;;;;;;4955692;28;21161;-80
2022/12/04 04:09:38;;;;;;;0.80;0.80;;;0.90;99.90;;;;;;4946129;28;20296;-81
2022/12/04 04:12:06;;;;;;;0.80;0.80;;;0.90;99.90;;;;;;4966562;28;20576;-80
2022/12/04 04:26:02;;;;;;;0.80;0.80;;;0.90;99.90;;;;;;4957423;28;21019;-80
2022/12/04 04:28:37;;;;;;;0.80;0.80;;;1.00;99.90;;;;;;4969901;28;20050;-81
2022/12/04 04:31:02;;;;;;;0.80;0.80;;;0.90;99.90;;;;;;4966887;28;20520;-80
2022/12/04 04:33:31;;;;;;;0.80;0.80;;;0.80;99.90;;;;;;4965288;28;20044;-80
2022/12/04 04:36:16;;;;;;;0.80;0.80;;;0.90;99.90;;;;;;4956373;28;20340;-80
2022/12/04 04:38:52;;;;;;;1.35;1.25;;;0.90;99.90;;;;;;4970309;28;20056;-80
2022/12/04 04:41:21;;;;;;;13.30;12.10;;;0.80;99.90;;;;;;4954645;28;20391;-80
2022/12/04 04:43:58;;;;;;;0.80;0.80;;;0.90;99.90;;;;;;4958944;28;20531;-80
2022/12/04 04:46:29;;;;;;;0.80;0.80;;;0.90;99.90;;;;;;4977110;28;20078;-80
2022/12/04 04:49:00;;;;;;;0.80;0.80;;;0.80;99.90;;;;;;4970322;28;20296;-80
2022/12/04 04:51:27;;;;;;;0.80;0.80;;;0.80;99.90;;;;;;4950888;28;20042;-80
2022/12/04 04:53:57;;;;;;;0.80;0.80;;;0.80;99.90;;;;;;4966192;28;20135;-80
2022/12/04 04:56:24;;;;;;;0.80;0.80;;;0.80;99.90;;;;;;4955931;28;20048;-79
2022/12/04 04:58:49;;;;;;;0.80;0.80;;;0.80;99.90;;;;;;4968898;28;20055;-80
2022/12/04 05:01:18;;;;;;;0.80;0.80;;;0.80;99.90;;;;;;4952400;28;20370;-79
2022/12/04 05:03:44;;;;;;;0.80;0.80;;;0.90;99.90;;;;;;4972476;28;20040;-80
2022/12/04 05:06:10;;;;;;;0.80;0.80;;;0.80;99.90;;;;;;4951933;28;20668;-80
2022/12/04 05:08:36;;;;;;;0.80;0.80;;;0.80;99.90;;;;;;4975488;28;20355;-81
2022/12/04 05:11:03;;;;;;;0.82;0.82;;;0.90;99.90;;;;;;4951531;28;20053;-80
2022/12/04 05:13:31;;;;;;;0.80;0.80;;;0.80;99.90;;;;;;4973107;28;20408;-81
2022/12/04 05:16:02;;;;;;;0.80;0.80;;;0.80;99.90;;;;;;4949406;28;20519;-80
2022/12/04 05:18:29;;;;;;;0.80;0.80;;;0.80;99.90;;;;;;4974930;28;20436;-80
2022/12/04 05:20:56;;;;;;;0.80;0.80;;;0.80;99.90;;;;;;4953219;28;20049;-79
2022/12/04 05:23:23;;;;;;;0.80;0.80;;;0.80;99.90;;;;;;4949334;28;20105;-80
2022/12/04 05:25:49;;;;;;;0.80;0.80;;;0.80;99.90;;;;;;4967768;28;20037;-80
2022/12/04 05:28:16;;;;;;;0.80;0.80;;;0.80;99.90;;;;;;4955211;28;20103;-79
2022/12/04 05:30:42;;;;;;;0.80;0.80;;;0.80;99.90;;;;;;4958476;28;20051;-80
2022/12/04 05:33:09;;;;;;;0.80;0.80;;;0.80;99.90;;;;;;4969356;28;20220;-80
2022/12/04 05:35:35;;;;;;;0.80;0.80;;;0.90;99.90;;;;;;4967254;28;20251;-80
2022/12/04 05:38:01;;;;;;;0.90;0.90;;;0.80;99.90;;;;;;4949820;28;20510;-80
2022/12/04 05:40:27;;;;;;;0.90;0.90;;;0.80;99.90;;;;;;4969156;28;20537;-79
2022/12/04 05:42:52;;;;;;;0.90;0.90;;;0.90;99.90;;;;;;4975398;28;20329;-79
2022/12/04 05:45:18;;;;;;;0.80;0.80;;;0.90;99.90;;;;;;4936523;28;20064;-79
2022/12/04 05:47:51;;;;;;;0.80;0.80;;;0.80;99.90;;;;;;4968219;28;20049;-80
2022/12/04 05:50:17;;;;;;;0.90;0.90;;;0.80;99.90;;;;;;4974692;28;20048;-79
2022/12/04 05:52:43;;;;;;;0.90;0.90;;;0.90;99.90;;;;;;4943129;28;20076;-80
2022/12/04 05:55:09;;;;;;;0.90;0.90;;;0.80;99.90;;;;;;4955392;28;20056;-80
2022/12/04 05:57:34;;;;;;;0.80;0.80;;;0.80;99.90;;;;;;4972475;28;20249;-80
2022/12/04 06:00:00;;;;;;;0.80;0.80;;;0.80;99.90;;;;;;4956415;28;20063;-80
2022/12/04 06:02:26;;;;;;;0.80;0.80;;;0.80;99.90;;;;;;4956560;28;20048;-79
2022/12/04 06:04:52;;;;;;;0.80;0.80;;;0.90;99.90;;;;;;4952921;28;20505;-79
2022/12/04 06:07:18;;;;;;;0.80;0.80;;;0.80;99.90;;;;;;4949817;28;20052;-79
2022/12/04 06:09:44;;;;;;;0.80;0.80;;;0.90;99.90;;;;;;4957322;28;20561;-79
2022/12/04 06:12:09;;;;;;;0.80;0.80;;;0.80;99.90;;;;;;4953551;28;20164;-79
2022/12/04 06:14:35;;;;;;;0.80;0.80;;;0.90;99.90;;;;;;4970460;28;20040;-81
2022/12/04 06:17:01;;;;;;;0.80;0.80;;;0.90;99.90;;;;;;4969591;28;20063;-79
2022/12/04 06:19:27;;;;;;;0.80;0.80;;;0.90;99.90;;;;;;4976138;28;20820;-79
2022/12/04 06:21:53;;;;;;;0.80;0.80;;;0.90;99.90;;;;;;4976077;28;20052;-79
2022/12/04 06:24:23;;;;;;;0.80;0.80;;;0.90;99.90;;;;;;4971589;28;20048;-79
2022/12/04 06:26:49;;;;;;;0.80;0.80;;;0.90;99.90;;;;;;4963548;28;20056;-80
2022/12/04 06:29:15;;;;;;;0.80;0.80;;;0.80;99.90;;;;;;4959485;28;20056;-79
2022/12/04 06:31:42;;;;;;;0.80;0.80;;;0.90;99.90;;;;;;4953282;28;20428;-80
2022/12/04 06:34:09;;;;;;;0.80;0.80;;;0.80;99.90;;;;;;4953803;28;20851;-80
2022/12/04 06:36:36;;;;;;;0.80;0.80;;;0.80;99.90;;;;;;4954086;28;20068;-80
2022/12/04 06:39:02;;;;;;;0.80;0.80;;;0.90;99.90;;;;;;4970185;28;20059;-80
2022/12/04 06:41:29;;;;;;;0.80;0.80;;;0.80;99.90;;;;;;4954448;28;20434;-79
2022/12/04 06:43:55;;;;;;;0.80;0.80;;;0.90;99.90;;;;;;4961207;28;20048;-79
2022/12/04 06:46:23;;;;;;;0.80;0.80;;;0.80;99.90;;;;;;4971324;28;20512;-80
2022/12/04 06:48:50;;;;;;;0.80;0.80;;;0.80;99.90;;;;;;4961679;28;20144;-79
2022/12/04 06:51:18;;;;;;;0.80;0.80;;;0.80;99.90;;;;;;4972748;28;20067;-80
2022/12/04 06:53:45;;;;;;;0.80;0.80;;;0.80;99.90;;;;;;4972607;28;20409;-79
2022/12/04 06:56:18;;;;;;;0.80;0.80;;;0.80;99.90;;;;;;4970488;28;20048;-79
2022/12/04 06:58:45;;;;;;;0.80;0.80;;;0.70;99.90;;;;;;4961543;28;20527;-79
2022/12/04 07:01:14;;;;;;;0.80;0.80;;;0.80;99.90;;;;;;4972122;28;20142;-79
2022/12/04 07:03:40;;;;;;;0.80;0.80;;;0.90;99.90;;;;;;4971466;28;20417;-80
2022/12/04 07:06:37;;;;;;;0.80;0.80;;;0.80;99.90;;;;;;4954529;28;20850;-80
2022/12/04 07:09:10;;;;;;;0.80;0.80;;;0.80;99.90;;;;;;4947875;28;20604;-79
2022/12/04 07:11:36;;;;;;;0.80;0.80;;;0.70;99.90;;;;;;4971439;28;20295;-79
2022/12/04 07:14:02;;;;;;;0.80;0.80;;;0.80;99.90;;;;;;4965542;28;20052;-78
2022/12/04 07:16:30;;;;;;;0.80;0.80;;;0.80;99.90;;;;;;4971304;28;20426;-80
2022/12/04 07:18:56;;;;;;;0.80;0.80;;;0.80;99.90;;;;;;4975979;28;20048;-79
2022/12/04 07:21:27;;;;;;;0.80;0.80;;;0.80;99.90;;;;;;4959971;28;20166;-79
2022/12/04 07:23:59;;;;;;;0.80;0.80;;;0.80;99.90;;;;;;4951188;28;20482;-80
2022/12/04 07:26:27;;;;;;;10.55;8.68;;;0.70;99.90;;;;;;4968929;28;20040;-79
2022/12/04 07:28:54;;;;;;;0.80;0.80;;;0.80;99.90;;;;;;4956910;28;20511;-80
2022/12/04 07:31:23;;;;;;;0.90;0.90;;;0.80;99.90;;;;;;4953537;28;20044;-80
2022/12/04 07:33:49;;;;;;;0.80;0.80;;;0.80;99.90;;;;;;4956861;28;20116;-79
2022/12/04 07:36:20;;;;;;;0.80;0.80;;;0.90;99.90;;;;;;4974990;28;20052;-79
2022/12/04 07:38:47;;;;;;;0.80;0.80;;;0.70;99.90;;;;;;4951028;28;20048;-79
2022/12/04 07:41:14;;;;;;;0.80;0.80;;;0.80;99.90;;;;;;4976444;28;20841;-80
2022/12/04 07:43:40;;;;;;;0.80;0.80;;;0.80;99.90;;;;;;4970115;28;20499;-79
2022/12/04 07:46:12;;;;;;;0.80;0.80;;;0.80;99.90;;;;;;4970680;28;20582;-79
2022/12/04 07:48:38;;;;;;;0.80;0.80;;;0.70;99.90;;;;;;4969935;28;20616;-80
2022/12/04 07:51:05;;;;;;;0.80;0.80;;;0.80;99.90;;;;;;4938757;28;20074;-79
2022/12/04 07:53:34;;;;;;;0.80;0.80;;;0.80;99.90;;;;;;4972928;28;20345;-79
2022/12/04 07:56:00;;;;;;;0.80;0.80;;;0.80;99.90;;;;;;4958061;28;20399;-81
2022/12/04 07:58:27;;;;;;;0.80;0.80;;;0.80;99.90;;;;;;4973315;28;21082;-80
2022/12/04 08:00:53;;;;;;;0.80;0.80;;;0.90;99.90;;;;;;4953275;28;20063;-80
2022/12/04 08:03:19;;;;;;;0.80;0.80;;;0.90;99.90;;;;;;4958820;28;20468;-79
2022/12/04 08:05:45;;;;;;;0.80;0.80;;;0.90;99.90;;;;;;4979404;28;20261;-80
2022/12/04 08:08:11;;;;;;;0.80;0.80;;;0.90;99.90;;;;;;4964298;28;20101;-79
2022/12/04 08:10:39;;;;;;;0.80;0.80;;;0.90;99.90;;;;;;4956182;28;20403;-79
2022/12/04 08:13:05;;;;;;;0.80;0.80;;;1.00;99.90;;;;;;4960366;28;20114;-80
2022/12/04 08:15:33;;;;;;;0.80;0.80;;;0.90;99.90;;;;;;4975767;28;20060;-79
2022/12/04 08:17:59;;;;;;;0.80;0.80;;;0.90;99.90;;;;;;4976348;28;20485;-79
2022/12/04 08:20:25;;;;;;;0.80;0.80;;;0.90;99.90;;;;;;4978550;28;20040;-80
2022/12/04 08:22:51;;;;;;;0.80;0.80;;;1.00;99.90;;;;;;4938644;28;20078;-81
2022/12/04 08:25:17;;;;;;;2.97;2.88;;;0.90;99.90;;;;;;4965683;28;20068;-79
2022/12/04 08:27:45;;;;;;;0.80;0.80;;;0.90;99.90;;;;;;4980056;28;20877;-77
2022/12/04 08:30:12;;;;;;;0.80;0.80;;;1.00;99.90;;;;;;4962571;28;20651;-79
2022/12/04 08:32:37;;;;;;;0.80;0.80;;;1.00;99.90;;;;;;4964844;28;20040;-80
2022/12/04 08:35:03;;;;;;;0.80;0.80;;;1.10;99.90;;;;;;4960125;28;20053;-79
2022/12/04 08:37:29;;;;;;;0.80;0.80;;;1.10;99.90;;;;;;4963972;28;20790;-80
2022/12/04 08:39:57;;;;;;;0.90;0.90;;;1.00;99.90;;;;;;4975318;28;20086;-81
2022/12/04 08:42:23;;;;;;;0.80;0.80;;;1.10;99.90;;;;;;4958445;28;20082;-79
2022/12/04 08:44:48;;;;;;;0.80;0.80;;;1.10;99.90;;;;;;4957460;28;20525;-79
2022/12/04 08:47:14;;;;;;;0.80;0.80;;;1.10;99.90;;;;;;4969464;28;20631;-80
2022/12/04 08:49:40;;;;;;;0.80;0.80;;;1.10;99.90;;;;;;4939792;28;20553;-81
2022/12/04 08:52:06;;;;;;;0.80;0.80;;;1.10;99.90;;;;;;4978177;28;20052;-79
2022/12/04 08:54:32;;;;;;;0.80;0.80;;;1.10;99.90;;;;;;4940011;28;20189;-79
2022/12/04 08:56:57;;;;;;;0.80;0.80;;;1.20;99.90;;;;;;4972904;28;20050;-79
2022/12/04 08:59:23;;;;;;;0.80;0.80;;;1.20;99.90;;;;;;4972014;28;20090;-79
2022/12/04 09:01:50;;;;;;;0.80;0.80;;;1.20;99.90;;;;;;4974125;28;20036;-80
2022/12/04 09:04:17;;;;;;;0.80;0.80;;;1.20;99.90;;;;;;4969734;28;20045;-80
2022/12/04 09:06:43;;;;;;;0.80;0.80;;;1.20;99.90;;;;;;4964516;28;20098;-80
2022/12/04 09:09:08;;;;;;;0.80;0.80;;;1.20;99.90;;;;;;4926092;28;20056;-80
2022/12/04 09:11:34;;;;;;;0.80;0.80;;;1.30;99.90;;;;;;4955385;28;20045;-79
2022/12/04 09:14:01;;;;;;;0.77;0.77;;;1.30;99.90;;;;;;4952206;28;20075;-80
2022/12/04 09:16:27;;;;;;;0.80;0.80;;;1.30;99.90;;;;;;4969296;28;20143;-79
2022/12/04 09:18:56;;;;;;;0.80;0.80;;;1.30;99.90;;;;;;4970775;28;20040;-79
2022/12/04 09:21:23;;;;;;;0.80;0.80;;;1.30;99.90;;;;;;4975233;28;20381;-79
2022/12/04 09:23:50;;;;;;;0.70;0.70;;;1.30;99.90;;;;;;4977448;28;20572;-80
2022/12/04 09:26:25;;;;;;;0.80;0.80;;;1.40;99.90;;;;;;4957471;28;20056;-79
2022/12/04 09:28:53;;;;;;;0.80;0.80;;;1.50;99.90;;;;;;4972167;28;20084;-79
2022/12/04 09:31:19;;;;;;;0.80;0.80;;;1.50;99.90;;;;;;4977894;28;20037;-79
2022/12/04 09:33:45;;;;;;;0.80;0.80;;;1.40;99.90;;;;;;4956505;28;20893;-79
2022/12/04 09:36:15;;;;;;;0.80;0.80;;;1.50;99.90;;;;;;4975255;28;20145;-80
2022/12/04 09:38:43;;;;;;;0.80;0.80;;;1.60;99.90;;;;;;4963975;28;20524;-80
2022/12/04 09:41:28;;;;;;;0.80;0.80;;;1.60;99.90;;;;;;4953073;28;21070;-79
2022/12/04 09:44:02;;;;;;;0.80;0.80;;;1.60;99.90;;;;;;4955053;28;20060;-79
2022/12/04 09:46:34;;;;;;;0.80;0.80;;;1.60;99.90;;;;;;4954299;28;20048;-80
2022/12/04 09:49:05;;;;;;;0.80;0.80;;;1.70;99.90;;;;;;4957427;28;20056;-80
2022/12/04 09:51:33;;;;;;;0.80;0.80;;;1.60;99.90;;;;;;4960544;28;20056;-80
2022/12/04 09:54:17;;;;;;;0.80;0.80;;;1.70;99.90;;;;;;4969178;28;20075;-79
2022/12/04 09:56:53;;;;;;;0.80;0.80;;;1.70;99.90;;;;;;4989774;28;20444;-80
2022/12/04 09:59:23;;;;;;;0.80;0.80;;;1.80;99.90;;;;;;4963618;28;20278;-80
2022/12/04 10:02:03;;;;;;;0.80;0.80;;;1.80;99.90;;;;;;4960689;28;20434;-80
2022/12/04 10:04:29;;;;;;;0.80;0.80;;;1.80;99.90;;;;;;4959433;28;20052;-80
2022/12/04 10:07:24;;;;;;;0.80;0.80;;;1.90;99.90;;;;;;4967914;28;20040;-80
2022/12/04 10:10:25;;;;;;;0.80;0.80;;;1.90;99.90;;;;;;4950638;28;20249;-80
2022/12/04 10:13:22;;;;;;;0.80;0.80;;;1.90;99.90;;;;;;4972069;28;20052;-81
2022/12/04 10:16:07;;;;;;;0.80;0.80;;;1.90;99.90;;;;;;4957737;28;20387;-81
2022/12/04 10:18:52;;;;;;;0.80;0.80;;;1.90;99.90;;;;;;4957167;28;20130;-80
2022/12/04 10:21:23;;;;;;;0.80;0.80;;;2.00;99.90;;;;;;4977982;28;20090;-79
2022/12/04 10:24:22;;;;;;;0.80;0.80;;;2.00;99.90;;;;;;4998922;28;20041;-80
2022/12/04 10:26:49;;;;;;;0.80;0.80;;;2.00;99.90;;;;;;5007269;28;20048;-80
2022/12/04 10:29:30;;;;;;;0.80;0.80;;;2.00;99.90;;;;;;4989060;28;20056;-81
2022/12/04 10:32:04;;;;;;;0.80;0.80;;;2.00;99.90;;;;;;4988780;28;21043;-79
2022/12/04 10:34:31;;;;;;;0.70;0.70;;;2.10;99.90;;;;;;4993619;28;20235;-78
2022/12/04 10:37:03;;;;;;;0.80;0.80;;;2.00;99.90;;;;;;4990443;28;20060;-81
2022/12/04 10:39:40;;;;;;;0.73;0.73;;;2.00;99.90;;;;;;4993378;28;20079;-81
2022/12/04 10:42:21;;;;;;;0.80;0.80;;;2.10;99.90;;;;;;4991849;28;20186;-80
2022/12/04 10:44:46;;;;;;;0.80;0.80;;;2.00;99.90;;;;;;5008689;28;20051;-82
2022/12/04 10:47:12;;;;;;;0.80;0.80;;;2.10;99.90;;;;;;4973109;28;20080;-81
2022/12/04 10:49:38;;;;;;;0.80;0.80;;;2.10;99.90;;;;;;4985523;28;20064;-81
2022/12/04 10:52:05;;;;;;;0.80;0.80;;;2.00;99.90;;;;;;4993482;28;20418;-79
2022/12/04 10:54:47;;;;;;;0.70;0.70;;;2.10;99.90;;;;;;5005944;28;20383;-81
2022/12/04 10:57:14;;;;;;;0.80;0.80;;;2.10;99.90;;;;;;4986462;28;20509;-81
2022/12/04 10:59:51;;;;;;;0.80;0.80;;;2.10;99.90;;;;;;4977099;28;20048;-80
2022/12/04 11:02:33;;;;;;;0.80;0.80;;;2.10;99.90;;;;;;4987052;28;20215;-81
2022/12/04 11:05:03;;;;;;;0.80;0.80;;;2.20;99.90;;;;;;4987467;28;20416;-81
2022/12/04 11:07:35;;;;;;;0.80;0.80;;;2.30;99.90;;;;;;5005757;28;20072;-80
2022/12/04 11:10:20;;;;;;;0.80;0.80;;;2.20;99.90;;;;;;4966147;28;20044;-81
2022/12/04 11:12:54;;;;;;;0.80;0.80;;;2.20;99.90;;;;;;4992997;28;20405;-80
2022/12/04 11:15:20;;;;;;;0.80;0.80;;;2.20;99.90;;;;;;4988372;28;20051;-81
2022/12/04 11:17:46;;;;;;;0.80;0.80;;;2.30;99.90;;;;;;4971615;28;20764;-81
2022/12/04 11:20:21;;;;;;;0.77;0.77;;;2.30;99.90;;;;;;4970400;28;20107;-81
2022/12/04 11:22:58;;;;;;;0.80;0.80;;;2.40;99.90;;;;;;4968802;28;20182;-81
2022/12/04 11:25:34;;;;;;;0.80;0.80;;;2.40;99.90;;;;;;4974668;28;20808;-82
2022/12/04 11:28:02;;;;;;;0.80;0.80;;;2.50;99.90;;;;;;4968022;28;20049;-80
2022/12/04 11:30:35;;;;;;;0.70;0.70;;;2.50;99.90;;;;;;4967865;28;20053;-81
2022/12/04 11:33:03;;;;;;;0.70;0.70;;;2.60;99.90;;;;;;4975243;28;20085;-81
2022/12/04 11:35:30;;;;;;;0.70;0.70;;;2.60;99.90;;;;;;4998375;28;21001;-81
2022/12/04 11:38:08;;;;;;;0.70;0.70;;;2.50;99.90;;;;;;4971877;28;20072;-81
2022/12/04 11:40:35;;;;;;;0.70;0.70;;;2.60;99.90;;;;;;4974839;28;20308;-79
2022/12/04 11:43:10;;;;;;;0.70;0.70;;;2.70;99.90;;;;;;4979401;28;20738;-80
2022/12/04 11:45:36;;;;;;;0.70;0.70;;;2.60;99.90;;;;;;4978287;28;20052;-80
2022/12/04 11:48:13;;;;;;;0.70;0.70;;;2.70;99.90;;;;;;4973409;28;20682;-80
2022/12/04 11:50:50;;;;;;;0.70;0.70;;;2.70;99.90;;;;;;4961113;28;20155;-80
2022/12/04 11:53:24;;;;;;;0.70;0.70;;;2.80;99.90;;;;;;4975587;28;20060;-80
2022/12/04 11:56:25;;;;;;;0.70;0.70;;;2.80;99.90;;;;;;4972632;28;20110;-81
2022/12/04 11:59:25;;;;;;;0.80;0.80;;;2.90;99.90;;;;;;4992220;28;20044;-79
2022/12/04 12:02:24;;;;;;;0.80;0.80;;;2.80;99.90;;;;;;4974631;28;20243;-80
2022/12/04 12:05:12;;;;;;;0.70;0.70;;;2.90;99.90;;;;;;4973991;28;20137;-81
2022/12/04 12:08:15;;;;;;;0.70;0.70;;;2.90;99.90;;;;;;4975394;28;20584;-81
2022/12/04 12:11:09;;;;;;;0.70;0.70;;;3.00;99.90;;;;;;4975668;28;21233;-79
2022/12/04 12:13:48;;;;;;;0.80;0.80;;;2.90;99.90;;;;;;4977331;28;20240;-80
2022/12/04 12:16:27;;;;;;;0.80;0.80;;;3.00;99.90;;;;;;4970692;28;20700;-80
2022/12/04 12:19:18;;;;;;;0.70;0.70;;;3.00;99.90;;;;;;4978185;28;20439;-80
2022/12/04 12:22:12;;;;;;;0.80;0.80;;;3.00;99.90;;;;;;4979261;28;20079;-80
2022/12/04 12:24:57;;;;;;;0.70;0.70;;;3.00;99.90;;;;;;4979413;28;20087;-80
2022/12/04 12:27:49;;;;;;;4.80;4.55;;;3.00;99.90;;;;;;4973141;28;20485;-81
2022/12/04 12:30:18;;;;;;;0.80;0.80;;;3.00;99.90;;;;;;4959724;28;20418;-80
2022/12/04 12:32:59;;;;;;;0.70;0.70;;;3.00;99.90;;;;;;4949537;28;20438;-79
2022/12/04 12:35:32;;;;;;;0.70;0.70;;;3.00;99.90;;;;;;4968414;28;20812;-80
2022/12/04 12:38:22;;;;;;;0.70;0.70;;;2.90;99.90;;;;;;4957499;28;20052;-80
2022/12/04 12:40:58;;;;;;;0.70;0.70;;;3.00;99.90;;;;;;5008343;28;20055;-80
2022/12/04 12:43:29;;;;;;;0.70;0.70;;;2.90;99.90;;;;;;5008498;28;20080;-78
2022/12/04 12:46:09;;;;;;;0.70;0.70;;;3.00;99.90;;;;;;4995788;28;20052;-80
2022/12/04 12:49:02;;;;;;;0.80;0.80;;;3.00;99.90;;;;;;4984048;28;20129;-80
2022/12/04 12:51:46;;;;;;;0.70;0.70;;;3.00;99.90;;;;;;4978450;28;20068;-80
2022/12/04 12:54:15;;;;;;;0.77;0.77;;;3.00;99.90;;;;;;4975205;28;20048;-81
2022/12/04 12:56:47;;;;;;;0.80;0.80;;;3.00;99.90;;;;;;4964069;28;20102;-80
2022/12/04 12:59:18;;;;;;;0.70;0.70;;;2.90;99.90;;;;;;4973974;28;20607;-81
2022/12/04 13:01:51;;;;;;;0.70;0.70;;;3.00;99.90;;;;;;4983921;28;20754;-80
2022/12/04 13:04:30;;;;;;;0.70;0.70;;;3.00;99.90;;;;;;4974501;28;20048;-79
2022/12/04 13:07:17;;;;;;;0.70;0.70;;;2.90;99.90;;;;;;4975348;28;21124;-80
2022/12/04 13:10:13;;;;;;;0.70;0.70;;;2.90;99.90;;;;;;4986111;28;20129;-79
2022/12/04 13:12:51;;;;;;;0.70;0.70;;;2.90;99.90;;;;;;4983406;28;20561;-79
2022/12/04 13:15:23;;;;;;;0.70;0.70;;;2.90;99.90;;;;;;4974391;28;20152;-80
2022/12/04 13:17:51;;;;;;;0.70;0.70;;;2.90;99.90;;;;;;4966193;28;20049;-80
2022/12/04 13:20:32;;;;;;;0.70;0.70;;;2.90;99.90;;;;;;4971746;28;20626;-80
2022/12/04 13:23:17;;;;;;;0.70;0.70;;;2.90;99.90;;;;;;4970834;28;20141;-80
2022/12/04 13:25:55;;;;;;;0.70;0.70;;;2.90;99.90;;;;;;4974659;28;20048;-80
2022/12/04 13:28:38;;;;;;;0.75;0.75;;;2.90;99.90;;;;;;4978083;28;20052;-80
2022/12/04 13:31:07;;;;;;;0.70;0.70;;;2.90;99.90;;;;;;4971556;28;20849;-79
2022/12/04 13:33:58;;;;;;;0.70;0.70;;;2.90;99.90;;;;;;4972811;28;20584;-79